sensor_id;sensor_type;location;lat;lon;timestamp;P1;durP1;ratioP1;P2;durP2;ratioP2
8401;SDS011;4238;48.404;9.498;2023-04-03T05:21:39;2.47;;;2.37;;
8401;SDS011;4238;48.404;9.498;2023-04-03T05:24:06;3.10;;;2.90;;
8401;SDS011;4238;48.404;9.498;2023-04-03T05:26:34;2.87;;;2.67;;
8401;SDS011;4238;48.404;9.498;2023-04-03T05:29:01;2.73;;;2.53;;
8401;SDS011;4238;48.404;9.498;2023-04-03T05:31:28;2.90;;;2.70;;
8401;SDS011;4238;48.404;9.498;2023-04-03T05:33:55;2.90;;;2.70;;
8401;SDS011;4238;48.404;9.498;2023-04-03T05:36:22;3.33;;;3.13;;
8401;SDS011;4238;48.404;9.498;2023-04-03T05:38:51;2.93;;;2.47;;
8401;SDS011;4238;48.404;9.498;2023-04-03T05:41:21;2.77;;;2.57;;
8401;SDS011;4238;48.404;9.498;2023-04-03T05:43:48;2.97;;;2.67;;
8401;SDS011;4238;48.404;9.498;2023-04-03T05:46:16;2.80;;;2.60;;
8401;SDS011;4238;48.404;9.498;2023-04-03T05:48:44;2.30;;;2.17;;
8401;SDS011;4238;48.404;9.498;2023-04-03T05:51:13;2.83;;;2.63;;
8401;SDS011;4238;48.404;9.498;2023-04-03T05:53:42;3.20;;;2.90;;
8401;SDS011;4238;48.404;9.498;2023-04-03T05:56:12;3.07;;;2.80;;
8401;SDS011;4238;48.404;9.498;2023-04-03T05:58:38;3.00;;;2.80;;
8401;SDS011;4238;48.404;9.498;2023-04-03T06:01:05;3.20;;;2.87;;
8401;SDS011;4238;48.404;9.498;2023-04-03T06:03:32;2.70;;;2.50;;
8401;SDS011;4238;48.404;9.498;2023-04-03T06:06:01;3.37;;;3.07;;
8401;SDS011;4238;48.404;9.498;2023-04-03T06:08:29;2.47;;;2.30;;
8401;SDS011;4238;48.404;9.498;2023-04-03T06:10:56;2.57;;;2.47;;
8401;SDS011;4238;48.404;9.498;2023-04-03T06:13:25;2.53;;;2.33;;
8401;SDS011;4238;48.404;9.498;2023-04-03T06:15:52;3.20;;;2.73;;
8401;SDS011;4238;48.404;9.498;2023-04-03T06:18:18;3.70;;;2.83;;
8401;SDS011;4238;48.404;9.498;2023-04-03T06:20:45;2.50;;;2.40;;
8401;SDS011;4238;48.404;9.498;2023-04-03T06:23:12;5.53;;;4.60;;
8401;SDS011;4238;48.404;9.498;2023-04-03T06:25:39;4.40;;;4.10;;
8401;SDS011;4238;48.404;9.498;2023-04-03T06:28:07;3.63;;;3.40;;
8401;SDS011;4238;48.404;9.498;2023-04-03T06:30:36;2.80;;;2.60;;
8401;SDS011;4238;48.404;9.498;2023-04-03T06:33:03;3.33;;;3.10;;
8401;SDS011;4238;48.404;9.498;2023-04-03T06:35:30;3.93;;;3.63;;
8401;SDS011;4238;48.404;9.498;2023-04-03T06:37:59;3.97;;;3.67;;
8401;SDS011;4238;48.404;9.498;2023-04-03T06:40:26;3.87;;;3.57;;
8401;SDS011;4238;48.404;9.498;2023-04-03T06:42:53;3.67;;;3.33;;
8401;SDS011;4238;48.404;9.498;2023-04-03T06:45:20;3.10;;;2.90;;
8401;SDS011;4238;48.404;9.498;2023-04-03T06:47:48;3.53;;;3.33;;
8401;SDS011;4238;48.404;9.498;2023-04-03T06:50:15;3.40;;;3.20;;
8401;SDS011;4238;48.404;9.498;2023-04-03T06:52:42;4.03;;;3.23;;
8401;SDS011;4238;48.404;9.498;2023-04-03T06:55:09;3.37;;;3.17;;
8401;SDS011;4238;48.404;9.498;2023-04-03T06:57:36;3.20;;;2.90;;
8401;SDS011;4238;48.404;9.498;2023-04-03T07:00:04;3.33;;;2.90;;
8401;SDS011;4238;48.404;9.498;2023-04-03T07:02:34;3.10;;;2.90;;
8401;SDS011;4238;48.404;9.498;2023-04-03T07:05:02;3.17;;;2.97;;
8401;SDS011;4238;48.404;9.498;2023-04-03T07:07:30;3.50;;;3.30;;
8401;SDS011;4238;48.404;9.498;2023-04-03T07:09:59;3.27;;;3.00;;
8401;SDS011;4238;48.404;9.498;2023-04-03T07:12:25;3.30;;;3.10;;
8401;SDS011;4238;48.404;9.498;2023-04-03T07:14:52;3.07;;;2.73;;
8401;SDS011;4238;48.404;9.498;2023-04-03T07:17:19;5.40;;;4.90;;
8401;SDS011;4238;48.404;9.498;2023-04-03T07:19:46;3.93;;;3.20;;
8401;SDS011;4238;48.404;9.498;2023-04-03T07:22:14;4.93;;;4.43;;
8401;SDS011;4238;48.404;9.498;2023-04-03T07:24:41;3.20;;;3.00;;
8401;SDS011;4238;48.404;9.498;2023-04-03T07:27:08;4.40;;;4.00;;
8401;SDS011;4238;48.404;9.498;2023-04-03T07:29:37;5.57;;;5.00;;
8401;SDS011;4238;48.404;9.498;2023-04-03T07:32:05;6.70;;;5.17;;
8401;SDS011;4238;48.404;9.498;2023-04-03T07:34:32;3.40;;;3.20;;
8401;SDS011;4238;48.404;9.498;2023-04-03T07:36:59;4.70;;;4.20;;
8401;SDS011;4238;48.404;9.498;2023-04-03T07:39:28;5.03;;;4.03;;
8401;SDS011;4238;48.404;9.498;2023-04-03T07:41:55;5.07;;;4.57;;
8401;SDS011;4238;48.404;9.498;2023-04-03T07:44:22;5.03;;;4.13;;
8401;SDS011;4238;48.404;9.498;2023-04-03T07:46:49;3.80;;;3.40;;
8401;SDS011;4238;48.404;9.498;2023-04-03T07:49:16;2.90;;;2.70;;
8401;SDS011;4238;48.404;9.498;2023-04-03T07:51:44;3.87;;;3.27;;
8401;SDS011;4238;48.404;9.498;2023-04-03T07:54:11;3.60;;;3.30;;
8401;SDS011;4238;48.404;9.498;2023-04-03T07:56:40;4.27;;;3.87;;
8401;SDS011;4238;48.404;9.498;2023-04-03T07:59:07;5.23;;;3.93;;
8401;SDS011;4238;48.404;9.498;2023-04-03T08:01:35;4.57;;;3.97;;
8401;SDS011;4238;48.404;9.498;2023-04-03T08:04:02;5.03;;;3.30;;
8401;SDS011;4238;48.404;9.498;2023-04-03T08:06:30;3.87;;;3.43;;
8401;SDS011;4238;48.404;9.498;2023-04-03T08:08:59;3.50;;;3.20;;
8401;SDS011;4238;48.404;9.498;2023-04-03T08:11:26;3.40;;;3.20;;
8401;SDS011;4238;48.404;9.498;2023-04-03T08:13:54;3.10;;;2.90;;
8401;SDS011;4238;48.404;9.498;2023-04-03T08:16:22;4.10;;;3.80;;
8401;SDS011;4238;48.404;9.498;2023-04-03T08:18:51;3.60;;;3.30;;
8401;SDS011;4238;48.404;9.498;2023-04-03T08:21:19;3.70;;;3.27;;
8401;SDS011;4238;48.404;9.498;2023-04-03T08:23:47;3.37;;;3.07;;
8401;SDS011;4238;48.404;9.498;2023-04-03T08:26:15;3.30;;;3.00;;
8401;SDS011;4238;48.404;9.498;2023-04-03T08:28:43;3.53;;;3.23;;
8401;SDS011;4238;48.404;9.498;2023-04-03T08:31:12;4.20;;;3.80;;
8401;SDS011;4238;48.404;9.498;2023-04-03T08:33:41;3.60;;;3.30;;
8401;SDS011;4238;48.404;9.498;2023-04-03T08:36:15;3.83;;;3.23;;
8401;SDS011;4238;48.404;9.498;2023-04-03T08:38:43;3.20;;;2.90;;
8401;SDS011;4238;48.404;9.498;2023-04-03T08:41:11;3.77;;;3.47;;
8401;SDS011;4238;48.404;9.498;2023-04-03T08:43:46;3.70;;;3.40;;
8401;SDS011;4238;48.404;9.498;2023-04-03T08:46:32;2.53;;;2.40;;
8401;SDS011;4238;48.404;9.498;2023-04-03T08:49:10;3.63;;;3.37;;
8401;SDS011;4238;48.404;9.498;2023-04-03T08:51:42;3.10;;;2.90;;
8401;SDS011;4238;48.404;9.498;2023-04-03T08:54:15;3.53;;;3.23;;
8401;SDS011;4238;48.404;9.498;2023-04-03T08:56:49;3.67;;;3.27;;
8401;SDS011;4238;48.404;9.498;2023-04-03T08:59:17;3.53;;;2.90;;
8401;SDS011;4238;48.404;9.498;2023-04-03T09:01:52;3.63;;;3.20;;
8401;SDS011;4238;48.404;9.498;2023-04-03T09:04:20;3.67;;;3.00;;
8401;SDS011;4238;48.404;9.498;2023-04-03T09:06:48;4.07;;;3.50;;
8401;SDS011;4238;48.404;9.498;2023-04-03T09:09:22;3.30;;;3.10;;
8401;SDS011;4238;48.404;9.498;2023-04-03T09:11:58;3.47;;;2.80;;
8401;SDS011;4238;48.404;9.498;2023-04-03T09:14:36;3.57;;;3.10;;
8401;SDS011;4238;48.404;9.498;2023-04-03T09:17:12;7.07;;;5.73;;
8401;SDS011;4238;48.404;9.498;2023-04-03T09:19:47;9.27;;;7.80;;
8401;SDS011;4238;48.404;9.498;2023-04-03T09:22:20;3.70;;;3.40;;
8401;SDS011;4238;48.404;9.498;2023-04-03T09:24:50;7.70;;;4.63;;
8401;SDS011;4238;48.404;9.498;2023-04-03T09:27:23;4.10;;;3.67;;
8401;SDS011;4238;48.404;9.498;2023-04-03T09:29:52;3.50;;;3.20;;
8401;SDS011;4238;48.404;9.498;2023-04-03T09:32:25;6.23;;;4.70;;
8401;SDS011;4238;48.404;9.498;2023-04-03T09:34:53;7.43;;;5.53;;
8401;SDS011;4238;48.404;9.498;2023-04-03T09:37:36;3.63;;;3.33;;
8401;SDS011;4238;48.404;9.498;2023-04-03T09:40:27;4.13;;;3.83;;
8401;SDS011;4238;48.404;9.498;2023-04-03T09:43:20;4.80;;;3.13;;
8401;SDS011;4238;48.404;9.498;2023-04-03T09:45:55;3.50;;;3.20;;
8401;SDS011;4238;48.404;9.498;2023-04-03T09:48:42;3.17;;;2.87;;
8401;SDS011;4238;48.404;9.498;2023-04-03T09:51:17;3.40;;;3.10;;
8401;SDS011;4238;48.404;9.498;2023-04-03T09:53:44;2.63;;;2.43;;
8401;SDS011;4238;48.404;9.498;2023-04-03T09:56:22;2.90;;;2.70;;
8401;SDS011;4238;48.404;9.498;2023-04-03T09:58:51;3.17;;;2.97;;
8401;SDS011;4238;48.404;9.498;2023-04-03T10:01:33;3.20;;;3.00;;
8401;SDS011;4238;48.404;9.498;2023-04-03T10:04:06;3.30;;;3.10;;
8401;SDS011;4238;48.404;9.498;2023-04-03T10:06:36;2.80;;;2.60;;
8401;SDS011;4238;48.404;9.498;2023-04-03T10:09:06;3.20;;;2.90;;
8401;SDS011;4238;48.404;9.498;2023-04-03T10:11:47;3.00;;;2.70;;
8401;SDS011;4238;48.404;9.498;2023-04-03T10:14:24;3.23;;;2.97;;
8401;SDS011;4238;48.404;9.498;2023-04-03T10:16:52;3.00;;;2.80;;
8401;SDS011;4238;48.404;9.498;2023-04-03T10:19:37;3.57;;;3.27;;
8401;SDS011;4238;48.404;9.498;2023-04-03T10:22:11;3.90;;;3.30;;
8401;SDS011;4238;48.404;9.498;2023-04-03T10:24:45;4.33;;;3.60;;
8401;SDS011;4238;48.404;9.498;2023-04-03T10:27:19;4.00;;;3.70;;
8401;SDS011;4238;48.404;9.498;2023-04-03T10:29:58;3.77;;;3.50;;
8401;SDS011;4238;48.404;9.498;2023-04-03T10:32:39;4.53;;;3.70;;
8401;SDS011;4238;48.404;9.498;2023-04-03T10:35:15;3.60;;;3.30;;
8401;SDS011;4238;48.404;9.498;2023-04-03T10:38:04;3.10;;;2.90;;
8401;SDS011;4238;48.404;9.498;2023-04-03T10:40:39;3.10;;;2.90;;
8401;SDS011;4238;48.404;9.498;2023-04-03T10:43:14;3.13;;;2.93;;
8401;SDS011;4238;48.404;9.498;2023-04-03T10:45:55;2.87;;;2.53;;
8401;SDS011;4238;48.404;9.498;2023-04-03T10:48:45;4.90;;;4.50;;
8401;SDS011;4238;48.404;9.498;2023-04-03T10:51:23;2.80;;;2.60;;
8401;SDS011;4238;48.404;9.498;2023-04-03T10:53:55;3.17;;;2.97;;
8401;SDS011;4238;48.404;9.498;2023-04-03T10:56:30;4.67;;;4.27;;
8401;SDS011;4238;48.404;9.498;2023-04-03T10:59:07;3.47;;;3.17;;
8401;SDS011;4238;48.404;9.498;2023-04-03T11:01:42;4.00;;;3.70;;
8401;SDS011;4238;48.404;9.498;2023-04-03T11:04:12;4.27;;;3.80;;
8401;SDS011;4238;48.404;9.498;2023-04-03T11:06:43;4.53;;;3.80;;
8401;SDS011;4238;48.404;9.498;2023-04-03T11:09:16;4.17;;;3.87;;
8401;SDS011;4238;48.404;9.498;2023-04-03T11:11:48;3.67;;;3.47;;
8401;SDS011;4238;48.404;9.498;2023-04-03T11:14:21;4.03;;;3.73;;
8401;SDS011;4238;48.404;9.498;2023-04-03T11:16:59;4.33;;;4.03;;
8401;SDS011;4238;48.404;9.498;2023-04-03T11:19:34;5.00;;;4.60;;
8401;SDS011;4238;48.404;9.498;2023-04-03T11:22:06;4.37;;;3.97;;
8401;SDS011;4238;48.404;9.498;2023-04-03T11:24:41;4.47;;;3.97;;
8401;SDS011;4238;48.404;9.498;2023-04-03T11:27:11;4.23;;;3.87;;
8401;SDS011;4238;48.404;9.498;2023-04-03T11:29:43;4.00;;;3.60;;
8401;SDS011;4238;48.404;9.498;2023-04-03T11:32:20;3.73;;;3.40;;
8401;SDS011;4238;48.404;9.498;2023-04-03T11:35:00;4.60;;;3.43;;
8401;SDS011;4238;48.404;9.498;2023-04-03T11:37:33;4.93;;;3.37;;
8401;SDS011;4238;48.404;9.498;2023-04-03T11:40:04;3.60;;;3.30;;
8401;SDS011;4238;48.404;9.498;2023-04-03T11:42:34;3.33;;;3.13;;
8401;SDS011;4238;48.404;9.498;2023-04-03T11:45:25;3.40;;;2.57;;
8401;SDS011;4238;48.404;9.498;2023-04-03T11:47:59;3.13;;;2.83;;
8401;SDS011;4238;48.404;9.498;2023-04-03T11:50:38;3.20;;;2.80;;
8401;SDS011;4238;48.404;9.498;2023-04-03T11:53:28;3.43;;;3.10;;
8401;SDS011;4238;48.404;9.498;2023-04-03T11:56:03;3.50;;;3.03;;
8401;SDS011;4238;48.404;9.498;2023-04-03T11:59:22;3.50;;;3.20;;
8401;SDS011;4238;48.404;9.498;2023-04-03T12:01:51;4.87;;;2.80;;
8401;SDS011;4238;48.404;9.498;2023-04-03T12:04:19;3.47;;;3.17;;
8401;SDS011;4238;48.404;9.498;2023-04-03T12:06:51;3.80;;;3.40;;
8401;SDS011;4238;48.404;9.498;2023-04-03T12:12:30;3.33;;;3.03;;
8401;SDS011;4238;48.404;9.498;2023-04-03T12:15:12;3.77;;;3.47;;
8401;SDS011;4238;48.404;9.498;2023-04-03T12:17:59;3.37;;;3.10;;
8401;SDS011;4238;48.404;9.498;2023-04-03T12:20:51;3.40;;;3.07;;
8401;SDS011;4238;48.404;9.498;2023-04-03T12:23:26;3.53;;;3.20;;
8401;SDS011;4238;48.404;9.498;2023-04-03T12:25:59;3.23;;;3.03;;
8401;SDS011;4238;48.404;9.498;2023-04-03T12:31:17;3.23;;;2.93;;
8401;SDS011;4238;48.404;9.498;2023-04-03T12:33:58;4.93;;;4.00;;
8401;SDS011;4238;48.404;9.498;2023-04-03T12:36:37;3.30;;;3.00;;
8401;SDS011;4238;48.404;9.498;2023-04-03T12:39:13;3.50;;;3.20;;
8401;SDS011;4238;48.404;9.498;2023-04-03T12:41:53;2.80;;;2.60;;
8401;SDS011;4238;48.404;9.498;2023-04-03T12:44:42;4.53;;;3.63;;
8401;SDS011;4238;48.404;9.498;2023-04-03T12:47:22;3.40;;;3.20;;
8401;SDS011;4238;48.404;9.498;2023-04-03T12:49:52;4.33;;;4.03;;
8401;SDS011;4238;48.404;9.498;2023-04-03T12:52:22;4.50;;;4.10;;
8401;SDS011;4238;48.404;9.498;2023-04-03T12:54:58;3.43;;;3.13;;
8401;SDS011;4238;48.404;9.498;2023-04-03T12:57:29;5.20;;;3.43;;
8401;SDS011;4238;48.404;9.498;2023-04-03T12:59:58;4.37;;;3.93;;
8401;SDS011;4238;48.404;9.498;2023-04-03T13:02:26;3.97;;;3.57;;
8401;SDS011;4238;48.404;9.498;2023-04-03T13:04:55;3.97;;;3.63;;
8401;SDS011;4238;48.404;9.498;2023-04-03T13:07:25;4.30;;;3.93;;
8401;SDS011;4238;48.404;9.498;2023-04-03T13:10:00;3.70;;;3.40;;
8401;SDS011;4238;48.404;9.498;2023-04-03T13:12:30;4.33;;;3.33;;
8401;SDS011;4238;48.404;9.498;2023-04-03T13:15:00;3.47;;;3.13;;
8401;SDS011;4238;48.404;9.498;2023-04-03T13:17:29;3.40;;;3.20;;
8401;SDS011;4238;48.404;9.498;2023-04-03T13:20:06;4.87;;;3.60;;
8401;SDS011;4238;48.404;9.498;2023-04-03T13:22:36;3.50;;;3.20;;
8401;SDS011;4238;48.404;9.498;2023-04-03T13:25:09;3.80;;;3.50;;
8401;SDS011;4238;48.404;9.498;2023-04-03T13:27:39;3.67;;;3.37;;
8401;SDS011;4238;48.404;9.498;2023-04-03T13:30:18;3.10;;;2.80;;
8401;SDS011;4238;48.404;9.498;2023-04-03T13:32:51;4.70;;;3.00;;
8401;SDS011;4238;48.404;9.498;2023-04-03T13:35:26;3.00;;;2.80;;
8401;SDS011;4238;48.404;9.498;2023-04-03T13:37:55;3.73;;;3.43;;
8401;SDS011;4238;48.404;9.498;2023-04-03T13:40:25;4.10;;;3.03;;
8401;SDS011;4238;48.404;9.498;2023-04-03T13:42:59;3.40;;;3.20;;
8401;SDS011;4238;48.404;9.498;2023-04-03T13:45:29;3.60;;;3.17;;
8401;SDS011;4238;48.404;9.498;2023-04-03T13:48:08;3.80;;;3.50;;
8401;SDS011;4238;48.404;9.498;2023-04-03T13:50:52;3.97;;;3.50;;
8401;SDS011;4238;48.404;9.498;2023-04-03T13:53:23;3.57;;;3.27;;
8401;SDS011;4238;48.404;9.498;2023-04-03T13:55:53;2.80;;;2.60;;
8401;SDS011;4238;48.404;9.498;2023-04-03T13:58:31;3.73;;;3.43;;
8401;SDS011;4238;48.404;9.498;2023-04-03T14:01:09;4.77;;;3.60;;
8401;SDS011;4238;48.404;9.498;2023-04-03T14:03:40;4.10;;;3.40;;
8401;SDS011;4238;48.404;9.498;2023-04-03T14:06:10;3.30;;;3.10;;
8401;SDS011;4238;48.404;9.498;2023-04-03T14:08:38;3.70;;;3.40;;
8401;SDS011;4238;48.404;9.498;2023-04-03T14:11:06;3.87;;;3.17;;
8401;SDS011;4238;48.404;9.498;2023-04-03T14:13:38;2.93;;;2.63;;
8401;SDS011;4238;48.404;9.498;2023-04-03T14:16:07;3.23;;;3.03;;
8401;SDS011;4238;48.404;9.498;2023-04-03T14:18:34;2.80;;;2.60;;
8401;SDS011;4238;48.404;9.498;2023-04-03T14:21:01;2.90;;;2.70;;
8401;SDS011;4238;48.404;9.498;2023-04-03T14:23:28;2.87;;;2.67;;
8401;SDS011;4238;48.404;9.498;2023-04-03T14:25:56;4.17;;;3.13;;
8401;SDS011;4238;48.404;9.498;2023-04-03T14:28:23;3.67;;;3.37;;
8401;SDS011;4238;48.404;9.498;2023-04-03T14:30:50;3.13;;;2.93;;
8401;SDS011;4238;48.404;9.498;2023-04-03T14:33:20;4.07;;;3.00;;
8401;SDS011;4238;48.404;9.498;2023-04-03T14:35:48;5.43;;;4.00;;
8401;SDS011;4238;48.404;9.498;2023-04-03T14:38:21;6.33;;;5.33;;
8401;SDS011;4238;48.404;9.498;2023-04-03T14:40:50;3.30;;;3.00;;
8401;SDS011;4238;48.404;9.498;2023-04-03T14:43:18;2.90;;;2.70;;
8401;SDS011;4238;48.404;9.498;2023-04-03T14:45:45;3.13;;;2.87;;
8401;SDS011;4238;48.404;9.498;2023-04-03T14:48:15;3.07;;;2.60;;
8401;SDS011;4238;48.404;9.498;2023-04-03T14:50:47;3.83;;;3.10;;
8401;SDS011;4238;48.404;9.498;2023-04-03T14:53:17;3.37;;;2.97;;
8401;SDS011;4238;48.404;9.498;2023-04-03T14:55:47;2.90;;;2.40;;
8401;SDS011;4238;48.404;9.498;2023-04-03T14:58:16;3.17;;;2.97;;
8401;SDS011;4238;48.404;9.498;2023-04-03T15:00:45;3.20;;;2.90;;
8401;SDS011;4238;48.404;9.498;2023-04-03T15:03:13;2.90;;;2.60;;
8401;SDS011;4238;48.404;9.498;2023-04-03T15:05:43;3.20;;;2.90;;
8401;SDS011;4238;48.404;9.498;2023-04-03T15:08:17;5.73;;;3.73;;
8401;SDS011;4238;48.404;9.498;2023-04-03T15:10:46;4.67;;;3.27;;
8401;SDS011;4238;48.404;9.498;2023-04-03T15:13:13;3.07;;;2.77;;
8401;SDS011;4238;48.404;9.498;2023-04-03T15:15:40;3.53;;;3.23;;
8401;SDS011;4238;48.404;9.498;2023-04-03T15:18:09;3.40;;;3.10;;
8401;SDS011;4238;48.404;9.498;2023-04-03T15:20:43;3.57;;;3.30;;
8401;SDS011;4238;48.404;9.498;2023-04-03T15:23:11;3.73;;;3.43;;
8401;SDS011;4238;48.404;9.498;2023-04-03T15:25:40;4.67;;;3.63;;
8401;SDS011;4238;48.404;9.498;2023-04-03T15:28:08;3.93;;;3.27;;
8401;SDS011;4238;48.404;9.498;2023-04-03T15:30:39;3.60;;;3.30;;
8401;SDS011;4238;48.404;9.498;2023-04-03T15:33:06;4.13;;;3.13;;
8401;SDS011;4238;48.404;9.498;2023-04-03T15:35:33;3.03;;;2.83;;
8401;SDS011;4238;48.404;9.498;2023-04-03T15:38:01;3.90;;;3.50;;
8401;SDS011;4238;48.404;9.498;2023-04-03T15:40:28;3.60;;;3.30;;
8401;SDS011;4238;48.404;9.498;2023-04-03T15:42:55;7.47;;;5.10;;
8401;SDS011;4238;48.404;9.498;2023-04-03T15:45:22;4.43;;;3.93;;
8401;SDS011;4238;48.404;9.498;2023-04-03T15:47:49;3.60;;;3.30;;
8401;SDS011;4238;48.404;9.498;2023-04-03T15:50:16;3.77;;;3.47;;
8401;SDS011;4238;48.404;9.498;2023-04-03T15:52:44;3.77;;;3.30;;
8401;SDS011;4238;48.404;9.498;2023-04-03T15:55:12;3.83;;;3.37;;
8401;SDS011;4238;48.404;9.498;2023-04-03T15:57:39;3.60;;;3.30;;
8401;SDS011;4238;48.404;9.498;2023-04-03T16:00:06;3.33;;;3.03;;
8401;SDS011;4238;48.404;9.498;2023-04-03T16:02:34;3.60;;;3.37;;
8401;SDS011;4238;48.404;9.498;2023-04-03T16:05:01;4.80;;;4.10;;
8401;SDS011;4238;48.404;9.498;2023-04-03T16:07:29;3.50;;;3.17;;
8401;SDS011;4238;48.404;9.498;2023-04-03T16:09:56;4.13;;;3.53;;
8401;SDS011;4238;48.404;9.498;2023-04-03T16:12:24;5.10;;;4.60;;
8401;SDS011;4238;48.404;9.498;2023-04-03T16:14:51;6.10;;;4.47;;
8401;SDS011;4238;48.404;9.498;2023-04-03T16:17:18;4.60;;;4.20;;
8401;SDS011;4238;48.404;9.498;2023-04-03T16:19:45;3.93;;;3.43;;
8401;SDS011;4238;48.404;9.498;2023-04-03T16:22:12;4.00;;;3.60;;
8401;SDS011;4238;48.404;9.498;2023-04-03T16:24:39;3.50;;;3.20;;
8401;SDS011;4238;48.404;9.498;2023-04-03T16:27:06;4.97;;;3.17;;
8401;SDS011;4238;48.404;9.498;2023-04-03T16:29:35;3.57;;;3.27;;
8401;SDS011;4238;48.404;9.498;2023-04-03T16:32:02;4.87;;;3.73;;
8401;SDS011;4238;48.404;9.498;2023-04-03T16:34:29;3.30;;;3.00;;
8401;SDS011;4238;48.404;9.498;2023-04-03T16:36:57;4.93;;;3.07;;
8401;SDS011;4238;48.404;9.498;2023-04-03T16:39:24;4.23;;;3.37;;
8401;SDS011;4238;48.404;9.498;2023-04-03T16:41:51;2.93;;;2.73;;
8401;SDS011;4238;48.404;9.498;2023-04-03T16:44:18;4.20;;;3.27;;
8401;SDS011;4238;48.404;9.498;2023-04-03T16:46:46;4.67;;;3.37;;
8401;SDS011;4238;48.404;9.498;2023-04-03T16:49:13;4.43;;;3.43;;
8401;SDS011;4238;48.404;9.498;2023-04-03T16:51:40;3.67;;;3.27;;
8401;SDS011;4238;48.404;9.498;2023-04-03T16:54:07;6.03;;;4.67;;
8401;SDS011;4238;48.404;9.498;2023-04-03T16:56:35;3.83;;;3.47;;
8401;SDS011;4238;48.404;9.498;2023-04-03T16:59:02;3.27;;;2.97;;
8401;SDS011;4238;48.404;9.498;2023-04-03T17:01:29;3.00;;;2.80;;
8401;SDS011;4238;48.404;9.498;2023-04-03T17:03:57;2.77;;;2.57;;
8401;SDS011;4238;48.404;9.498;2023-04-03T17:06:25;2.43;;;2.33;;
8401;SDS011;4238;48.404;9.498;2023-04-03T17:08:52;4.10;;;3.17;;
8401;SDS011;4238;48.404;9.498;2023-04-03T17:11:18;3.93;;;3.63;;
8401;SDS011;4238;48.404;9.498;2023-04-03T17:13:46;4.20;;;3.80;;
8401;SDS011;4238;48.404;9.498;2023-04-03T17:16:13;4.93;;;3.70;;
8401;SDS011;4238;48.404;9.498;2023-04-03T17:18:41;3.33;;;3.03;;
8401;SDS011;4238;48.404;9.498;2023-04-03T17:21:11;3.30;;;3.00;;
8401;SDS011;4238;48.404;9.498;2023-04-03T17:23:39;3.00;;;2.77;;
8401;SDS011;4238;48.404;9.498;2023-04-03T17:26:08;3.50;;;3.20;;
8401;SDS011;4238;48.404;9.498;2023-04-03T17:28:35;6.03;;;3.73;;
8401;SDS011;4238;48.404;9.498;2023-04-03T17:31:03;3.00;;;2.80;;
8401;SDS011;4238;48.404;9.498;2023-04-03T17:33:31;3.90;;;3.23;;
8401;SDS011;4238;48.404;9.498;2023-04-03T17:35:59;4.50;;;4.10;;
8401;SDS011;4238;48.404;9.498;2023-04-03T17:38:29;4.63;;;4.23;;
8401;SDS011;4238;48.404;9.498;2023-04-03T17:40:57;6.27;;;4.30;;
8401;SDS011;4238;48.404;9.498;2023-04-03T17:43:26;3.87;;;3.10;;
8401;SDS011;4238;48.404;9.498;2023-04-03T17:45:55;3.80;;;3.60;;
8401;SDS011;4238;48.404;9.498;2023-04-03T17:48:27;3.40;;;3.10;;
8401;SDS011;4238;48.404;9.498;2023-04-03T17:50:54;3.00;;;2.80;;
8401;SDS011;4238;48.404;9.498;2023-04-03T17:53:21;4.47;;;3.30;;
8401;SDS011;4238;48.404;9.498;2023-04-03T17:55:50;3.23;;;3.03;;
8401;SDS011;4238;48.404;9.498;2023-04-03T17:58:17;4.10;;;3.70;;
8401;SDS011;4238;48.404;9.498;2023-04-03T18:00:44;3.93;;;3.00;;
8401;SDS011;4238;48.404;9.498;2023-04-03T18:03:11;4.57;;;4.10;;
8401;SDS011;4238;48.404;9.498;2023-04-03T18:05:38;14.37;;;8.77;;
8401;SDS011;4238;48.404;9.498;2023-04-03T18:08:05;4.57;;;3.60;;
8401;SDS011;4238;48.404;9.498;2023-04-03T18:10:33;6.07;;;4.83;;
8401;SDS011;4238;48.404;9.498;2023-04-03T18:13:02;5.57;;;4.60;;
8401;SDS011;4238;48.404;9.498;2023-04-03T18:15:30;9.40;;;6.37;;
8401;SDS011;4238;48.404;9.498;2023-04-03T18:17:57;5.30;;;4.57;;
8401;SDS011;4238;48.404;9.498;2023-04-03T18:20:23;8.80;;;5.00;;
8401;SDS011;4238;48.404;9.498;2023-04-03T18:22:50;22.27;;;13.33;;
8401;SDS011;4238;48.404;9.498;2023-04-03T18:25:17;25.20;;;14.23;;
8401;SDS011;4238;48.404;9.498;2023-04-03T18:27:45;18.40;;;11.77;;
8401;SDS011;4238;48.404;9.498;2023-04-03T18:30:14;4.73;;;3.47;;
8401;SDS011;4238;48.404;9.498;2023-04-03T18:32:42;4.43;;;4.03;;
8401;SDS011;4238;48.404;9.498;2023-04-03T18:35:09;8.60;;;7.45;;
8401;SDS011;4238;48.404;9.498;2023-04-03T18:37:37;7.67;;;6.87;;
8401;SDS011;4238;48.404;9.498;2023-04-03T18:40:04;9.83;;;8.70;;
8401;SDS011;4238;48.404;9.498;2023-04-03T18:42:32;6.87;;;6.00;;
8401;SDS011;4238;48.404;9.498;2023-04-03T18:44:59;11.13;;;6.93;;
8401;SDS011;4238;48.404;9.498;2023-04-03T18:47:31;10.37;;;8.17;;
8401;SDS011;4238;48.404;9.498;2023-04-03T18:50:00;10.10;;;8.40;;
8401;SDS011;4238;48.404;9.498;2023-04-03T18:52:29;8.73;;;6.23;;
8401;SDS011;4238;48.404;9.498;2023-04-03T18:54:55;11.80;;;8.40;;
8401;SDS011;4238;48.404;9.498;2023-04-03T18:57:22;7.20;;;4.40;;
8401;SDS011;4238;48.404;9.498;2023-04-03T18:59:50;3.93;;;3.53;;
8401;SDS011;4238;48.404;9.498;2023-04-03T19:02:17;4.70;;;4.27;;
8401;SDS011;4238;48.404;9.498;2023-04-03T19:04:48;3.00;;;2.70;;
8401;SDS011;4238;48.404;9.498;2023-04-03T19:07:16;4.83;;;3.60;;
8401;SDS011;4238;48.404;9.498;2023-04-03T19:09:43;2.90;;;2.70;;
8401;SDS011;4238;48.404;9.498;2023-04-03T19:12:10;4.70;;;3.10;;
8401;SDS011;4238;48.404;9.498;2023-04-03T19:14:37;3.57;;;3.37;;
8401;SDS011;4238;48.404;9.498;2023-04-03T19:17:03;3.63;;;3.33;;
8401;SDS011;4238;48.404;9.498;2023-04-03T19:19:32;3.67;;;3.37;;
8401;SDS011;4238;48.404;9.498;2023-04-03T19:22:00;3.07;;;2.87;;
8401;SDS011;4238;48.404;9.498;2023-04-03T19:24:27;3.77;;;3.30;;
8401;SDS011;4238;48.404;9.498;2023-04-03T19:26:54;3.03;;;2.73;;
8401;SDS011;4238;48.404;9.498;2023-04-03T19:29:21;3.63;;;3.30;;
8401;SDS011;4238;48.404;9.498;2023-04-03T19:31:48;3.60;;;3.30;;
8401;SDS011;4238;48.404;9.498;2023-04-03T19:34:15;3.57;;;3.27;;
8401;SDS011;4238;48.404;9.498;2023-04-03T19:36:42;3.30;;;3.00;;
8401;SDS011;4238;48.404;9.498;2023-04-03T19:39:10;2.70;;;2.50;;
8401;SDS011;4238;48.404;9.498;2023-04-03T19:41:37;3.23;;;3.03;;
8401;SDS011;4238;48.404;9.498;2023-04-03T19:44:06;3.90;;;3.43;;
8401;SDS011;4238;48.404;9.498;2023-04-03T19:46:34;11.13;;;6.93;;
8401;SDS011;4238;48.404;9.498;2023-04-03T19:49:01;7.70;;;5.27;;
8401;SDS011;4238;48.404;9.498;2023-04-03T19:51:28;3.90;;;3.27;;
8401;SDS011;4238;48.404;9.498;2023-04-03T19:53:56;3.23;;;3.03;;
8401;SDS011;4238;48.404;9.498;2023-04-03T19:56:24;4.80;;;3.17;;
8401;SDS011;4238;48.404;9.498;2023-04-03T19:58:51;3.20;;;2.90;;
8401;SDS011;4238;48.404;9.498;2023-04-03T20:01:19;3.60;;;3.00;;
8401;SDS011;4238;48.404;9.498;2023-04-03T20:03:46;3.40;;;3.10;;
8401;SDS011;4238;48.404;9.498;2023-04-03T20:06:13;3.40;;;3.00;;
8401;SDS011;4238;48.404;9.498;2023-04-03T20:08:41;4.00;;;3.47;;
8401;SDS011;4238;48.404;9.498;2023-04-03T20:11:08;4.07;;;3.17;;
8401;SDS011;4238;48.404;9.498;2023-04-03T20:13:37;4.87;;;3.83;;
8401;SDS011;4238;48.404;9.498;2023-04-03T20:16:04;3.60;;;3.20;;
8401;SDS011;4238;48.404;9.498;2023-04-03T20:18:32;4.07;;;3.43;;
8401;SDS011;4238;48.404;9.498;2023-04-03T20:21:01;4.87;;;3.70;;
8401;SDS011;4238;48.404;9.498;2023-04-03T20:23:29;4.77;;;3.67;;
8401;SDS011;4238;48.404;9.498;2023-04-03T20:25:57;5.60;;;3.77;;
8401;SDS011;4238;48.404;9.498;2023-04-03T20:28:25;3.33;;;3.03;;
8401;SDS011;4238;48.404;9.498;2023-04-03T20:30:54;4.13;;;3.10;;
8401;SDS011;4238;48.404;9.498;2023-04-03T20:33:22;5.57;;;4.03;;
8401;SDS011;4238;48.404;9.498;2023-04-03T20:35:50;4.07;;;3.67;;
8401;SDS011;4238;48.404;9.498;2023-04-03T20:38:18;4.60;;;3.43;;
8401;SDS011;4238;48.404;9.498;2023-04-03T20:40:46;5.17;;;4.37;;
8401;SDS011;4238;48.404;9.498;2023-04-03T20:43:13;3.47;;;3.00;;
8401;SDS011;4238;48.404;9.498;2023-04-03T20:45:41;3.30;;;3.00;;
8401;SDS011;4238;48.404;9.498;2023-04-03T20:48:09;3.80;;;3.10;;
8401;SDS011;4238;48.404;9.498;2023-04-03T20:50:37;3.63;;;3.33;;
8401;SDS011;4238;48.404;9.498;2023-04-03T20:53:04;3.07;;;2.87;;
8401;SDS011;4238;48.404;9.498;2023-04-03T20:55:32;3.20;;;2.97;;
8401;SDS011;4238;48.404;9.498;2023-04-03T20:57:59;3.67;;;3.00;;
8401;SDS011;4238;48.404;9.498;2023-04-03T21:00:26;4.47;;;3.20;;